Flight Track Log - Related Links

Times and Time Zones

All times are in EDT time to prevent confusion due to time zone crossing. See the CTL17 flight status page for this flight to view local times or setup timezone preferences in your user account.

Time Position Orientation Groundspeed Altitude Reporting Facility
EDT Latitude Longitude Course Direction KTS MPH feet Rate Location/Type
Thu 05:40:26 PM 42.2067 -83.5714 215° Southwest 128 147 1,700  Level Cleveland Center
Thu 05:42:00 PM 42.2025 -83.4851 94° East  Level FlightAware Approximate
Thu 05:42:40 PM 42.1283 -83.6153 94° East 142 163 3,100  Level Cleveland Center
Thu 05:43:29 PM 42.0950 -83.6111 175° South 153 176 3,100 -55 Level Cleveland Center
Thu 05:44:30 PM 42.0517 -83.5978 167° South 154 177 3,000 -50 Descending Cleveland Center
Thu 05:45:30 PM 42.0342 -83.5467 115° Southeast 151 174 3,000  Level Cleveland Center
Thu 05:46:37 PM 42.0192 -83.4872 109° East 153 176 3,000  Level Cleveland Center
Thu 05:47:39 PM 42.0058 -83.4308 108° East 157 181 3,000  Level Cleveland Center
Thu 05:48:39 PM 41.9906 -83.3742 110° East 153 176 3,000  Level Cleveland Center
Thu 05:49:46 PM 41.9733 -83.3147 111° Southeast 153 176 3,000  Level Cleveland Center
Thu 05:50:48 PM 41.9578 -83.2639 112° Southeast 154 177 3,000 233 Level Cleveland Center
Thu 05:51:55 PM 41.9383 -83.2044 114° Southeast 149 171 3,500 397 Climbing Cleveland Center
Thu 05:52:49 PM 41.9289 -83.1564 105° East 151 174 3,800 365 Climbing Cleveland Center
Thu 05:53:50 PM 41.9114 -83.1028 114° Southeast 150 173 4,200 390 Climbing Cleveland Center
Thu 05:54:52 PM 41.8981 -83.0519 109° East 150 173 4,600 416 Climbing Cleveland Center
Thu 05:55:31 PM 41.8861 -83.0153 114° Southeast 148 170 4,900 319 Climbing Cleveland Center
Thu 05:56:26 PM 41.8703 -82.9728 117° Southeast 150 173 5,100 52 Climbing Cleveland Center
Thu 05:57:27 PM 41.8550 -82.9136 109° East 157 181 5,000  Descending Cleveland Center
Thu 05:58:39 PM 41.8375 -82.8461 109° East 157 181 5,100 50 Climbing Cleveland Center
Thu 05:59:28 PM 41.8236 -82.8067 115° Southeast 156 180 5,100  Level Cleveland Center
Thu 06:00:29 PM 41.8081 -82.7533 111° Southeast 157 181 5,100  Level Cleveland Center
Thu 06:01:36 PM 41.7883 -82.6914 113° Southeast 159 183 5,100  Level Cleveland Center
Thu 06:02:43 PM 41.7728 -82.6267 108° East 161 185 5,100 -189 Level Cleveland Center
Thu 06:03:43 PM 41.7531 -82.5706 115° Southeast 168 193 4,700 -446 Descending Cleveland Center
Thu 06:04:44 PM 41.7353 -82.5058 110° East 173 199 4,200 -609 Descending Cleveland Center
Thu 06:05:51 PM 41.7156 -82.4386 111° Southeast 177 204 3,400 -516 Descending Cleveland Center
Thu 06:06:52 PM 41.7061 -82.3772 102° East 172 198 3,100 -148 Descending Cleveland Center
Thu 06:07:53 PM 41.7072 -82.3158 89° East 158 182 3,100  Level Cleveland Center
Thu 06:08:54 PM 41.7100 -82.2547 86° East 158 182 3,100  Level Cleveland Center
Thu 06:09:55 PM 41.7111 -82.1936 89° East 157 181 3,100  Level Cleveland Center
Thu 06:11:02 PM 41.6931 -82.1319 111° Southeast 157 181 3,100  Level Cleveland Center
Thu 06:11:56 PM 41.6811 -82.0844 109° East 158 182 3,100  Level Cleveland Center
Thu 06:12:51 PM 41.6672 -82.0342 110° East 155 178 3,100  Level Cleveland Center
Thu 06:13:52 PM 41.6533 -81.9808 109° East 158 182 3,100  Level Cleveland Center
Thu 06:15:05 PM 41.6353 -81.9111 109° East 157 181 3,100 -207 Level Cleveland Center
Thu 06:15:48 PM 41.6253 -81.8747 110° East 164 189 2,700 -310 Descending Cleveland Center
Thu 06:17:01 PM 41.5758 -81.8433 155° Southeast 157 181 2,500 -45 Descending Cleveland Center
Thu 06:18:02 PM 41.5617 -81.7931 111° Southeast 138 159 2,600 -362 Climbing Cleveland Center
Thu 06:18:57 PM 41.5369 -81.7647 139° Southeast 123 142 1,800 -678 Descending Cleveland Center
Thu 06:19:57 PM 41.5144 -81.7311 132° Southeast 123 142 1,300 -500 Descending Cleveland Center

Login

Don't have an account? Register now (free) for customized features, flight alerts, and more!